sensor_id;sensor_type;location;lat;lon;timestamp;pressure;altitude;pressure_sealevel;temperature;humidity
12172;BME280;6149;52.418;13.668;2023-02-08T00:01:48;103825.88;;;-6.58;100.00
12172;BME280;6149;52.418;13.668;2023-02-08T00:04:16;103818.97;;;-6.59;100.00
12172;BME280;6149;52.418;13.668;2023-02-08T00:06:44;103813.81;;;-6.59;100.00
12172;BME280;6149;52.418;13.668;2023-02-08T00:09:11;103813.59;;;-6.62;100.00
12172;BME280;6149;52.418;13.668;2023-02-08T00:11:39;103811.59;;;-6.66;100.00
12172;BME280;6149;52.418;13.668;2023-02-08T00:14:05;103820.09;;;-6.67;100.00
12172;BME280;6149;52.418;13.668;2023-02-08T00:16:33;103813.16;;;-6.68;100.00
12172;BME280;6149;52.418;13.668;2023-02-08T00:18:59;103816.56;;;-6.69;100.00
12172;BME280;6149;52.418;13.668;2023-02-08T00:21:27;103810.22;;;-6.74;100.00
12172;BME280;6149;52.418;13.668;2023-02-08T00:23:55;103810.78;;;-6.78;100.00
12172;BME280;6149;52.418;13.668;2023-02-08T00:26:22;103813.94;;;-6.82;100.00
12172;BME280;6149;52.418;13.668;2023-02-08T00:28:51;103812.13;;;-6.83;100.00
12172;BME280;6149;52.418;13.668;2023-02-08T00:31:22;103811.13;;;-6.85;100.00
12172;BME280;6149;52.418;13.668;2023-02-08T00:33:48;103811.81;;;-6.88;100.00
12172;BME280;6149;52.418;13.668;2023-02-08T00:36:18;103824.56;;;-6.89;100.00
12172;BME280;6149;52.418;13.668;2023-02-08T00:38:44;103819.31;;;-6.91;100.00
12172;BME280;6149;52.418;13.668;2023-02-08T00:41:12;103823.34;;;-6.94;100.00
12172;BME280;6149;52.418;13.668;2023-02-08T00:43:39;103816.31;;;-6.97;100.00
12172;BME280;6149;52.418;13.668;2023-02-08T00:46:07;103819.66;;;-6.98;100.00
12172;BME280;6149;52.418;13.668;2023-02-08T00:48:34;103823.03;;;-6.99;100.00
12172;BME280;6149;52.418;13.668;2023-02-08T00:51:05;103823.69;;;-7.01;100.00
12172;BME280;6149;52.418;13.668;2023-02-08T00:53:35;103825.38;;;-7.02;100.00
12172;BME280;6149;52.418;13.668;2023-02-08T00:56:05;103821.00;;;-7.03;100.00
12172;BME280;6149;52.418;13.668;2023-02-08T00:58:32;103822.69;;;-7.03;100.00
12172;BME280;6149;52.418;13.668;2023-02-08T01:00:59;103822.59;;;-7.05;100.00
12172;BME280;6149;52.418;13.668;2023-02-08T01:03:27;103826.75;;;-7.07;100.00
12172;BME280;6149;52.418;13.668;2023-02-08T01:05:59;103819.72;;;-7.10;100.00
12172;BME280;6149;52.418;13.668;2023-02-08T01:08:26;103816.94;;;-7.13;100.00
12172;BME280;6149;52.418;13.668;2023-02-08T01:11:01;103826.09;;;-7.16;100.00
12172;BME280;6149;52.418;13.668;2023-02-08T01:13:28;103826.78;;;-7.19;100.00
12172;BME280;6149;52.418;13.668;2023-02-08T01:15:55;103826.56;;;-7.22;100.00
12172;BME280;6149;52.418;13.668;2023-02-08T01:18:37;103830.59;;;-7.25;100.00
12172;BME280;6149;52.418;13.668;2023-02-08T01:21:06;103836.63;;;-7.25;100.00
12172;BME280;6149;52.418;13.668;2023-02-08T01:23:33;103833.94;;;-7.26;100.00
12172;BME280;6149;52.418;13.668;2023-02-08T01:26:00;103835.50;;;-7.28;100.00
12172;BME280;6149;52.418;13.668;2023-02-08T01:28:27;103822.53;;;-7.30;100.00
12172;BME280;6149;52.418;13.668;2023-02-08T01:30:54;103836.16;;;-7.31;100.00
12172;BME280;6149;52.418;13.668;2023-02-08T01:33:23;103828.34;;;-7.32;100.00
12172;BME280;6149;52.418;13.668;2023-02-08T01:35:53;103837.63;;;-7.34;100.00
12172;BME280;6149;52.418;13.668;2023-02-08T01:38:21;103833.28;;;-7.35;100.00
12172;BME280;6149;52.418;13.668;2023-02-08T01:40:48;103839.09;;;-7.38;100.00
12172;BME280;6149;52.418;13.668;2023-02-08T01:43:19;103830.19;;;-7.43;100.00
12172;BME280;6149;52.418;13.668;2023-02-08T01:45:51;103834.19;;;-7.47;100.00
12172;BME280;6149;52.418;13.668;2023-02-08T01:48:24;103840.00;;;-7.49;100.00
12172;BME280;6149;52.418;13.668;2023-02-08T01:50:57;103838.09;;;-7.52;100.00
12172;BME280;6149;52.418;13.668;2023-02-08T01:53:27;103835.53;;;-7.52;100.00
12172;BME280;6149;52.418;13.668;2023-02-08T01:55:59;103831.97;;;-7.54;100.00
12172;BME280;6149;52.418;13.668;2023-02-08T01:58:36;103833.53;;;-7.56;100.00
12172;BME280;6149;52.418;13.668;2023-02-08T02:01:06;103830.06;;;-7.56;100.00
12172;BME280;6149;52.418;13.668;2023-02-08T02:03:35;103824.03;;;-7.57;100.00
12172;BME280;6149;52.418;13.668;2023-02-08T02:06:06;103824.16;;;-7.55;100.00
12172;BME280;6149;52.418;13.668;2023-02-08T02:08:37;103821.47;;;-7.57;100.00
12172;BME280;6149;52.418;13.668;2023-02-08T02:11:05;103831.50;;;-7.60;100.00
12172;BME280;6149;52.418;13.668;2023-02-08T02:13:35;103828.84;;;-7.61;100.00
12172;BME280;6149;52.418;13.668;2023-02-08T02:16:04;103823.47;;;-7.64;100.00
12172;BME280;6149;52.418;13.668;2023-02-08T02:18:32;103828.50;;;-7.66;100.00
12172;BME280;6149;52.418;13.668;2023-02-08T02:21:17;103830.94;;;-7.67;100.00
12172;BME280;6149;52.418;13.668;2023-02-08T02:24:27;103835.09;;;-7.69;100.00
12172;BME280;6149;52.418;13.668;2023-02-08T02:27:24;103833.50;;;-7.67;100.00
12172;BME280;6149;52.418;13.668;2023-02-08T02:30:31;103830.16;;;-7.66;100.00
12172;BME280;6149;52.418;13.668;2023-02-08T02:33:17;103823.25;;;-7.67;100.00
12172;BME280;6149;52.418;13.668;2023-02-08T02:35:59;103830.94;;;-7.67;100.00
12172;BME280;6149;52.418;13.668;2023-02-08T02:38:40;103822.25;;;-7.69;100.00
12172;BME280;6149;52.418;13.668;2023-02-08T02:41:21;103822.91;;;-7.72;100.00
12172;BME280;6149;52.418;13.668;2023-02-08T02:44:15;103825.25;;;-7.75;100.00
12172;BME280;6149;52.418;13.668;2023-02-08T02:46:57;103821.78;;;-7.76;100.00
12172;BME280;6149;52.418;13.668;2023-02-08T02:49:35;103818.44;;;-7.75;100.00
12172;BME280;6149;52.418;13.668;2023-02-08T02:52:10;103826.91;;;-7.76;100.00
12172;BME280;6149;52.418;13.668;2023-02-08T02:54:41;103823.47;;;-7.76;100.00
12172;BME280;6149;52.418;13.668;2023-02-08T02:57:15;103825.91;;;-7.78;100.00
12172;BME280;6149;52.418;13.668;2023-02-08T02:59:44;103821.66;;;-7.77;100.00
12172;BME280;6149;52.418;13.668;2023-02-08T03:02:12;103823.34;;;-7.78;100.00
12172;BME280;6149;52.418;13.668;2023-02-08T03:04:53;103826.69;;;-7.79;100.00
12172;BME280;6149;52.418;13.668;2023-02-08T03:07:36;103829.25;;;-7.79;100.00
12172;BME280;6149;52.418;13.668;2023-02-08T03:10:37;103829.97;;;-7.81;100.00
12172;BME280;6149;52.418;13.668;2023-02-08T03:13:24;103829.72;;;-7.84;100.00
12172;BME280;6149;52.418;13.668;2023-02-08T03:16:01;103834.88;;;-7.84;100.00
12172;BME280;6149;52.418;13.668;2023-02-08T03:18:42;103831.28;;;-7.86;100.00
12172;BME280;6149;52.418;13.668;2023-02-08T03:21:26;103834.63;;;-7.87;100.00
12172;BME280;6149;52.418;13.668;2023-02-08T03:24:04;103834.53;;;-7.89;100.00
12172;BME280;6149;52.418;13.668;2023-02-08T03:26:41;103831.06;;;-7.89;100.00
12172;BME280;6149;52.418;13.668;2023-02-08T03:29:20;103830.94;;;-7.91;100.00
12172;BME280;6149;52.418;13.668;2023-02-08T03:31:52;103829.94;;;-7.93;100.00
12172;BME280;6149;52.418;13.668;2023-02-08T03:34:28;103831.63;;;-7.93;100.00
12172;BME280;6149;52.418;13.668;2023-02-08T03:37:02;103830.84;;;-7.92;100.00
12172;BME280;6149;52.418;13.668;2023-02-08T03:39:33;103833.19;;;-7.95;100.00
12172;BME280;6149;52.418;13.668;2023-02-08T03:42:05;103830.38;;;-7.98;100.00
12172;BME280;6149;52.418;13.668;2023-02-08T03:44:39;103824.25;;;-8.00;100.00
12172;BME280;6149;52.418;13.668;2023-02-08T03:47:12;103826.69;;;-8.02;100.00
12172;BME280;6149;52.418;13.668;2023-02-08T03:49:42;103833.25;;;-8.05;100.00
12172;BME280;6149;52.418;13.668;2023-02-08T03:52:12;103825.56;;;-8.05;100.00
12172;BME280;6149;52.418;13.668;2023-02-08T03:54:40;103825.44;;;-8.07;100.00
12172;BME280;6149;52.418;13.668;2023-02-08T03:57:12;103828.78;;;-8.08;100.00
12172;BME280;6149;52.418;13.668;2023-02-08T03:59:43;103836.38;;;-8.10;100.00
12172;BME280;6149;52.418;13.668;2023-02-08T04:02:15;103840.63;;;-8.10;100.00
12172;BME280;6149;52.418;13.668;2023-02-08T04:04:46;103833.56;;;-8.13;100.00
12172;BME280;6149;52.418;13.668;2023-02-08T04:07:16;103835.25;;;-8.13;100.00
12172;BME280;6149;52.418;13.668;2023-02-08T04:09:44;103836.91;;;-8.14;100.00
12172;BME280;6149;52.418;13.668;2023-02-08T04:12:11;103834.47;;;-8.12;100.00
12172;BME280;6149;52.418;13.668;2023-02-08T04:14:38;103842.94;;;-8.13;100.00
12172;BME280;6149;52.418;13.668;2023-02-08T04:17:04;103829.09;;;-8.15;100.00
12172;BME280;6149;52.418;13.668;2023-02-08T04:19:31;103838.59;;;-8.14;100.00
12172;BME280;6149;52.418;13.668;2023-02-08T04:21:59;103830.69;;;-8.17;100.00
12172;BME280;6149;52.418;13.668;2023-02-08T04:24:27;103837.38;;;-8.19;100.00
12172;BME280;6149;52.418;13.668;2023-02-08T04:26:55;103845.09;;;-8.19;100.00
12172;BME280;6149;52.418;13.668;2023-02-08T04:29:23;103827.78;;;-8.22;100.00
12172;BME280;6149;52.418;13.668;2023-02-08T04:31:50;103835.47;;;-8.22;100.00
12172;BME280;6149;52.418;13.668;2023-02-08T04:34:16;103838.94;;;-8.21;100.00
12172;BME280;6149;52.418;13.668;2023-02-08T04:36:43;103832.56;;;-8.26;100.00
12172;BME280;6149;52.418;13.668;2023-02-08T04:39:09;103834.91;;;-8.29;100.00
12172;BME280;6149;52.418;13.668;2023-02-08T04:41:38;103833.88;;;-8.31;100.00
12172;BME280;6149;52.418;13.668;2023-02-08T04:44:05;103830.53;;;-8.30;100.00
12172;BME280;6149;52.418;13.668;2023-02-08T04:46:32;103834.00;;;-8.30;100.00
12172;BME280;6149;52.418;13.668;2023-02-08T04:48:58;103835.56;;;-8.32;100.00
12172;BME280;6149;52.418;13.668;2023-02-08T04:51:25;103825.22;;;-8.33;100.00
12172;BME280;6149;52.418;13.668;2023-02-08T04:53:51;103834.59;;;-8.34;100.00
12172;BME280;6149;52.418;13.668;2023-02-08T04:56:19;103834.59;;;-8.34;100.00
12172;BME280;6149;52.418;13.668;2023-02-08T04:58:47;103831.91;;;-8.35;100.00
12172;BME280;6149;52.418;13.668;2023-02-08T05:01:14;103836.25;;;-8.34;100.00
12172;BME280;6149;52.418;13.668;2023-02-08T05:03:41;103836.25;;;-8.34;100.00
12172;BME280;6149;52.418;13.668;2023-02-08T05:06:08;103834.34;;;-8.37;100.00
12172;BME280;6149;52.418;13.668;2023-02-08T05:08:35;103838.59;;;-8.37;100.00
12172;BME280;6149;52.418;13.668;2023-02-08T05:11:01;103841.69;;;-8.41;100.00
12172;BME280;6149;52.418;13.668;2023-02-08T05:13:28;103836.22;;;-8.46;100.00
12172;BME280;6149;52.418;13.668;2023-02-08T05:15:56;103855.72;;;-8.48;100.00
12172;BME280;6149;52.418;13.668;2023-02-08T05:18:24;103851.25;;;-8.51;100.00
12172;BME280;6149;52.418;13.668;2023-02-08T05:20:55;103851.25;;;-8.51;100.00
12172;BME280;6149;52.418;13.668;2023-02-08T05:23:23;103857.28;;;-8.50;100.00
12172;BME280;6149;52.418;13.668;2023-02-08T05:25:50;103853.94;;;-8.49;100.00
12172;BME280;6149;52.418;13.668;2023-02-08T05:28:21;103851.25;;;-8.51;100.00
12172;BME280;6149;52.418;13.668;2023-02-08T05:30:48;103857.28;;;-8.50;100.00
12172;BME280;6149;52.418;13.668;2023-02-08T05:33:18;103853.69;;;-8.52;100.00
12172;BME280;6149;52.418;13.668;2023-02-08T05:35:44;103857.03;;;-8.53;100.00
12172;BME280;6149;52.418;13.668;2023-02-08T05:38:11;103855.28;;;-8.54;100.00
12172;BME280;6149;52.418;13.668;2023-02-08T05:40:38;103849.13;;;-8.56;100.00
12172;BME280;6149;52.418;13.668;2023-02-08T05:43:04;103861.84;;;-8.58;100.00
12172;BME280;6149;52.418;13.668;2023-02-08T05:45:31;103860.03;;;-8.59;100.00
12172;BME280;6149;52.418;13.668;2023-02-08T05:47:58;103856.59;;;-8.59;100.00
12172;BME280;6149;52.418;13.668;2023-02-08T05:50:25;103854.91;;;-8.59;100.00
12172;BME280;6149;52.418;13.668;2023-02-08T05:52:52;103851.47;;;-8.59;100.00
12172;BME280;6149;52.418;13.668;2023-02-08T05:55:19;103860.94;;;-8.58;100.00
12172;BME280;6149;52.418;13.668;2023-02-08T05:57:45;103861.84;;;-8.58;100.00
12172;BME280;6149;52.418;13.668;2023-02-08T06:00:13;103861.72;;;-8.59;100.00
12172;BME280;6149;52.418;13.668;2023-02-08T06:02:40;103858.25;;;-8.60;100.00
12172;BME280;6149;52.418;13.668;2023-02-08T06:05:07;103864.16;;;-8.61;100.00
12172;BME280;6149;52.418;13.668;2023-02-08T06:07:35;103856.47;;;-8.61;100.00
12172;BME280;6149;52.418;13.668;2023-02-08T06:10:02;103862.63;;;-8.59;100.00
12172;BME280;6149;52.418;13.668;2023-02-08T06:12:29;103868.63;;;-8.58;100.00
12172;BME280;6149;52.418;13.668;2023-02-08T06:14:56;103865.19;;;-8.59;100.00
12172;BME280;6149;52.418;13.668;2023-02-08T06:17:22;103872.75;;;-8.60;100.00
12172;BME280;6149;52.418;13.668;2023-02-08T06:19:49;103871.75;;;-8.62;100.00
12172;BME280;6149;52.418;13.668;2023-02-08T06:22:16;103872.63;;;-8.62;100.00
12172;BME280;6149;52.418;13.668;2023-02-08T06:24:44;103870.84;;;-8.63;100.00
12172;BME280;6149;52.418;13.668;2023-02-08T06:27:12;103884.44;;;-8.64;100.00
12172;BME280;6149;52.418;13.668;2023-02-08T06:29:38;103880.97;;;-8.64;100.00
12172;BME280;6149;52.418;13.668;2023-02-08T06:32:05;103880.09;;;-8.65;100.00
12172;BME280;6149;52.418;13.668;2023-02-08T06:34:31;103883.31;;;-8.67;100.00
12172;BME280;6149;52.418;13.668;2023-02-08T06:36:58;103891.78;;;-8.68;100.00
12172;BME280;6149;52.418;13.668;2023-02-08T06:39:26;103882.41;;;-8.68;100.00
12172;BME280;6149;52.418;13.668;2023-02-08T06:41:55;103896.13;;;-8.67;100.00
12172;BME280;6149;52.418;13.668;2023-02-08T06:44:21;103898.69;;;-8.67;100.00
12172;BME280;6149;52.418;13.668;2023-02-08T06:46:48;103891.13;;;-8.66;100.00
12172;BME280;6149;52.418;13.668;2023-02-08T06:49:15;103897.25;;;-8.64;100.00
12172;BME280;6149;52.418;13.668;2023-02-08T06:51:41;103902.38;;;-8.64;100.00
12172;BME280;6149;52.418;13.668;2023-02-08T06:54:08;103896.50;;;-8.63;100.00
12172;BME280;6149;52.418;13.668;2023-02-08T06:56:35;103897.25;;;-8.64;100.00
12172;BME280;6149;52.418;13.668;2023-02-08T06:59:03;103892.13;;;-8.64;100.00
12172;BME280;6149;52.418;13.668;2023-02-08T07:01:29;103894.81;;;-8.62;100.00
12172;BME280;6149;52.418;13.668;2023-02-08T07:03:56;103903.41;;;-8.62;100.00
12172;BME280;6149;52.418;13.668;2023-02-08T07:06:22;103900.97;;;-8.60;100.00
12172;BME280;6149;52.418;13.668;2023-02-08T07:08:49;103896.84;;;-8.58;100.00
12172;BME280;6149;52.418;13.668;2023-02-08T07:11:17;103890.16;;;-8.56;100.00
12172;BME280;6149;52.418;13.668;2023-02-08T07:13:46;103893.75;;;-8.54;100.00
12172;BME280;6149;52.418;13.668;2023-02-08T07:16:14;103888.81;;;-8.51;100.00
12172;BME280;6149;52.418;13.668;2023-02-08T07:18:41;103897.66;;;-8.48;100.00
12172;BME280;6149;52.418;13.668;2023-02-08T07:21:07;103892.63;;;-8.46;100.00
12172;BME280;6149;52.418;13.668;2023-02-08T07:23:36;103884.28;;;-8.44;100.00
12172;BME280;6149;52.418;13.668;2023-02-08T07:26:04;103881.31;;;-8.38;100.00
12172;BME280;6149;52.418;13.668;2023-02-08T07:28:32;103876.41;;;-8.35;100.00
12172;BME280;6149;52.418;13.668;2023-02-08T07:31:03;103876.72;;;-8.30;100.00
12172;BME280;6149;52.418;13.668;2023-02-08T07:33:32;103868.50;;;-8.26;100.00
12172;BME280;6149;52.418;13.668;2023-02-08T07:35:59;103870.63;;;-8.21;100.00
12172;BME280;6149;52.418;13.668;2023-02-08T07:38:27;103860.91;;;-8.13;100.00
12172;BME280;6149;52.418;13.668;2023-02-08T07:40:59;103870.31;;;-8.02;100.00
12172;BME280;6149;52.418;13.668;2023-02-08T07:43:26;103859.19;;;-7.91;100.00
12172;BME280;6149;52.418;13.668;2023-02-08T07:45:53;103861.97;;;-7.76;100.00
12172;BME280;6149;52.418;13.668;2023-02-08T07:48:20;103870.81;;;-7.61;100.00
12172;BME280;6149;52.418;13.668;2023-02-08T07:50:48;103869.16;;;-7.49;100.00
12172;BME280;6149;52.418;13.668;2023-02-08T07:53:14;103869.03;;;-7.27;100.00
12172;BME280;6149;52.418;13.668;2023-02-08T07:55:44;103868.56;;;-7.10;100.00
12172;BME280;6149;52.418;13.668;2023-02-08T07:58:11;103883.28;;;-6.95;100.00
12172;BME280;6149;52.418;13.668;2023-02-08T08:00:39;103886.06;;;-6.81;100.00
12172;BME280;6149;52.418;13.668;2023-02-08T08:03:05;103893.16;;;-6.65;100.00
12172;BME280;6149;52.418;13.668;2023-02-08T08:05:32;103889.06;;;-6.50;100.00
12172;BME280;6149;52.418;13.668;2023-02-08T08:08:00;103897.38;;;-6.29;100.00
12172;BME280;6149;52.418;13.668;2023-02-08T08:10:27;103893.38;;;-6.12;100.00
12172;BME280;6149;52.418;13.668;2023-02-08T08:12:54;103896.31;;;-5.94;100.00
12172;BME280;6149;52.418;13.668;2023-02-08T08:15:20;103892.94;;;-5.80;100.00
12172;BME280;6149;52.418;13.668;2023-02-08T08:17:47;103894.84;;;-5.64;100.00
12172;BME280;6149;52.418;13.668;2023-02-08T08:20:13;103905.25;;;-5.50;100.00
12172;BME280;6149;52.418;13.668;2023-02-08T08:22:40;103907.94;;;-5.35;100.00
12172;BME280;6149;52.418;13.668;2023-02-08T08:25:08;103909.00;;;-5.18;100.00
12172;BME280;6149;52.418;13.668;2023-02-08T08:27:35;103915.16;;;-5.03;100.00
12172;BME280;6149;52.418;13.668;2023-02-08T08:30:02;103915.25;;;-4.88;100.00
12172;BME280;6149;52.418;13.668;2023-02-08T08:32:31;103916.59;;;-4.67;100.00
12172;BME280;6149;52.418;13.668;2023-02-08T08:34:57;103912.09;;;-4.56;100.00
12172;BME280;6149;52.418;13.668;2023-02-08T08:37:24;103919.88;;;-4.42;100.00
12172;BME280;6149;52.418;13.668;2023-02-08T08:39:50;103916.47;;;-4.27;100.00
12172;BME280;6149;52.418;13.668;2023-02-08T08:42:18;103916.59;;;-4.11;100.00
12172;BME280;6149;52.418;13.668;2023-02-08T08:44:45;103915.13;;;-3.78;100.00
12172;BME280;6149;52.418;13.668;2023-02-08T08:47:11;103906.03;;;-3.57;100.00
12172;BME280;6149;52.418;13.668;2023-02-08T08:49:39;103900.22;;;-3.38;100.00
12172;BME280;6149;52.418;13.668;2023-02-08T08:52:07;103901.63;;;-3.28;100.00
12172;BME280;6149;52.418;13.668;2023-02-08T08:54:34;103900.97;;;-3.10;100.00
12172;BME280;6149;52.418;13.668;2023-02-08T08:57:01;103906.59;;;-3.02;100.00
12172;BME280;6149;52.418;13.668;2023-02-08T08:59:30;103896.78;;;-2.91;100.00
12172;BME280;6149;52.418;13.668;2023-02-08T09:01:57;103892.06;;;-2.84;100.00
12172;BME280;6149;52.418;13.668;2023-02-08T09:04:24;103894.69;;;-2.67;100.00
12172;BME280;6149;52.418;13.668;2023-02-08T09:06:52;103897.91;;;-2.55;100.00
12172;BME280;6149;52.418;13.668;2023-02-08T09:09:20;103899.13;;;-2.49;100.00
12172;BME280;6149;52.418;13.668;2023-02-08T09:11:47;103893.63;;;-2.39;100.00
12172;BME280;6149;52.418;13.668;2023-02-08T09:14:14;103896.47;;;-2.34;100.00
12172;BME280;6149;52.418;13.668;2023-02-08T09:16:43;103879.91;;;-2.20;100.00
12172;BME280;6149;52.418;13.668;2023-02-08T09:19:12;103884.78;;;-2.10;100.00
12172;BME280;6149;52.418;13.668;2023-02-08T09:21:40;103893.13;;;-1.99;100.00
12172;BME280;6149;52.418;13.668;2023-02-08T09:24:07;103892.63;;;-1.92;100.00
12172;BME280;6149;52.418;13.668;2023-02-08T09:26:34;103891.75;;;-1.75;100.00
12172;BME280;6149;52.418;13.668;2023-02-08T09:29:01;103891.84;;;-1.73;100.00
12172;BME280;6149;52.418;13.668;2023-02-08T09:31:29;103900.09;;;-1.64;100.00
12172;BME280;6149;52.418;13.668;2023-02-08T09:33:59;103897.81;;;-1.58;100.00
12172;BME280;6149;52.418;13.668;2023-02-08T09:36:28;103901.59;;;-1.51;100.00
12172;BME280;6149;52.418;13.668;2023-02-08T09:39:00;103913.13;;;-1.45;99.84
12172;BME280;6149;52.418;13.668;2023-02-08T09:41:39;103908.50;;;-1.34;100.00
12172;BME280;6149;52.418;13.668;2023-02-08T09:44:22;103906.81;;;-1.16;99.68
12172;BME280;6149;52.418;13.668;2023-02-08T09:46:56;103892.13;;;-1.15;98.76
12172;BME280;6149;52.418;13.668;2023-02-08T09:49:31;103898.59;;;-1.06;99.25
12172;BME280;6149;52.418;13.668;2023-02-08T09:52:02;103895.03;;;-0.90;97.32
12172;BME280;6149;52.418;13.668;2023-02-08T09:54:36;103896.16;;;-0.85;95.08
12172;BME280;6149;52.418;13.668;2023-02-08T09:57:16;103900.75;;;-0.79;96.85
12172;BME280;6149;52.418;13.668;2023-02-08T09:59:50;103889.41;;;-0.62;96.67
12172;BME280;6149;52.418;13.668;2023-02-08T10:02:22;103882.56;;;-0.60;95.58
12172;BME280;6149;52.418;13.668;2023-02-08T10:04:57;103881.78;;;-0.40;95.09
12172;BME280;6149;52.418;13.668;2023-02-08T10:07:28;103877.56;;;-0.36;94.55
12172;BME280;6149;52.418;13.668;2023-02-08T10:09:57;103869.84;;;-0.35;94.80
12172;BME280;6149;52.418;13.668;2023-02-08T10:12:35;103866.28;;;-0.37;93.00
12172;BME280;6149;52.418;13.668;2023-02-08T10:15:09;103864.66;;;-0.35;93.12
12172;BME280;6149;52.418;13.668;2023-02-08T10:17:53;103870.72;;;-0.34;92.54
12172;BME280;6149;52.418;13.668;2023-02-08T10:20:46;103854.53;;;-0.28;92.43
12172;BME280;6149;52.418;13.668;2023-02-08T10:23:39;103857.25;;;-0.25;91.78
12172;BME280;6149;52.418;13.668;2023-02-08T10:26:28;103858.09;;;-0.26;92.70
12172;BME280;6149;52.418;13.668;2023-02-08T10:29:17;103853.09;;;-0.22;91.69
12172;BME280;6149;52.418;13.668;2023-02-08T10:32:11;103851.72;;;-0.14;90.57
12172;BME280;6149;52.418;13.668;2023-02-08T10:34:45;103847.41;;;-0.13;90.18
12172;BME280;6149;52.418;13.668;2023-02-08T10:37:18;103844.31;;;-0.05;90.15
12172;BME280;6149;52.418;13.668;2023-02-08T10:39:46;103834.41;;;0.08;90.51
12172;BME280;6149;52.418;13.668;2023-02-08T10:42:16;103830.28;;;0.13;89.20
12172;BME280;6149;52.418;13.668;2023-02-08T10:44:55;103827.25;;;0.23;88.08
12172;BME280;6149;52.418;13.668;2023-02-08T10:47:37;103828.28;;;0.26;88.47
12172;BME280;6149;52.418;13.668;2023-02-08T10:50:11;103825.91;;;0.32;87.77
12172;BME280;6149;52.418;13.668;2023-02-08T10:52:46;103827.81;;;0.37;88.57
12172;BME280;6149;52.418;13.668;2023-02-08T10:55:14;103822.00;;;0.44;86.40
12172;BME280;6149;52.418;13.668;2023-02-08T10:57:43;103818.31;;;0.59;85.95
12172;BME280;6149;52.418;13.668;2023-02-08T11:00:17;103814.66;;;0.54;85.49
12172;BME280;6149;52.418;13.668;2023-02-08T11:02:44;103822.47;;;0.54;84.31
12172;BME280;6149;52.418;13.668;2023-02-08T11:05:14;103817.63;;;0.63;83.80
12172;BME280;6149;52.418;13.668;2023-02-08T11:07:43;103821.81;;;0.60;81.78
12172;BME280;6149;52.418;13.668;2023-02-08T11:10:21;103807.84;;;0.58;83.05
12172;BME280;6149;52.418;13.668;2023-02-08T11:12:54;103809.03;;;0.66;81.08
12172;BME280;6149;52.418;13.668;2023-02-08T11:15:24;103805.03;;;0.74;81.94
12172;BME280;6149;52.418;13.668;2023-02-08T11:17:54;103803.34;;;0.76;79.99
12172;BME280;6149;52.418;13.668;2023-02-08T11:20:28;103802.25;;;0.70;79.79
12172;BME280;6149;52.418;13.668;2023-02-08T11:23:01;103792.22;;;0.80;81.53
12172;BME280;6149;52.418;13.668;2023-02-08T11:25:33;103790.56;;;0.82;78.59
12172;BME280;6149;52.418;13.668;2023-02-08T11:28:04;103785.94;;;0.97;78.74
12172;BME280;6149;52.418;13.668;2023-02-08T11:30:54;103785.00;;;0.95;79.48
12172;BME280;6149;52.418;13.668;2023-02-08T11:33:22;103782.75;;;1.05;78.10
12172;BME280;6149;52.418;13.668;2023-02-08T11:35:59;103779.09;;;1.23;78.95
12172;BME280;6149;52.418;13.668;2023-02-08T11:38:29;103774.53;;;1.18;78.34
12172;BME280;6149;52.418;13.668;2023-02-08T11:40:59;103775.66;;;1.24;76.84
12172;BME280;6149;52.418;13.668;2023-02-08T11:43:30;103776.03;;;1.35;77.65
12172;BME280;6149;52.418;13.668;2023-02-08T11:45:58;103769.81;;;1.31;77.98
12172;BME280;6149;52.418;13.668;2023-02-08T11:48:34;103768.94;;;1.31;76.33
12172;BME280;6149;52.418;13.668;2023-02-08T11:51:07;103774.22;;;1.32;76.63
12172;BME280;6149;52.418;13.668;2023-02-08T11:53:37;103778.47;;;1.30;77.19
12172;BME280;6149;52.418;13.668;2023-02-08T11:56:17;103777.97;;;1.41;77.14
12172;BME280;6149;52.418;13.668;2023-02-08T11:58:58;103768.56;;;1.44;77.44
12172;BME280;6149;52.418;13.668;2023-02-08T12:01:29;103763.44;;;1.47;76.88
12172;BME280;6149;52.418;13.668;2023-02-08T12:03:59;103766.34;;;1.56;76.82
12172;BME280;6149;52.418;13.668;2023-02-08T12:06:39;103772.41;;;1.55;76.66
12172;BME280;6149;52.418;13.668;2023-02-08T12:09:36;103771.47;;;1.53;76.48
12172;BME280;6149;52.418;13.668;2023-02-08T12:12:20;103758.81;;;1.64;76.23
12172;BME280;6149;52.418;13.668;2023-02-08T12:15:00;103757.91;;;1.63;75.56
12172;BME280;6149;52.418;13.668;2023-02-08T12:17:56;103758.75;;;1.62;74.96
12172;BME280;6149;52.418;13.668;2023-02-08T12:20:36;103749.25;;;1.64;73.75
12172;BME280;6149;52.418;13.668;2023-02-08T12:23:29;103754.97;;;1.54;73.81
12172;BME280;6149;52.418;13.668;2023-02-08T12:26:09;103756.97;;;1.61;75.35
12172;BME280;6149;52.418;13.668;2023-02-08T12:28:52;103760.41;;;1.60;75.71
12172;BME280;6149;52.418;13.668;2023-02-08T12:31:32;103754.38;;;1.61;76.92
12172;BME280;6149;52.418;13.668;2023-02-08T12:34:14;103757.09;;;1.64;74.74
12172;BME280;6149;52.418;13.668;2023-02-08T12:37:06;103757.75;;;1.59;75.56
12172;BME280;6149;52.418;13.668;2023-02-08T12:40:23;103755.41;;;1.66;75.51
12172;BME280;6149;52.418;13.668;2023-02-08T12:43:26;103752.81;;;1.66;75.97
12172;BME280;6149;52.418;13.668;2023-02-08T12:46:10;103762.72;;;1.77;76.40
12172;BME280;6149;52.418;13.668;2023-02-08T12:49:07;103760.75;;;1.70;75.53
12172;BME280;6149;52.418;13.668;2023-02-08T12:51:50;103758.69;;;1.61;75.67
12172;BME280;6149;52.418;13.668;2023-02-08T12:54:27;103757.81;;;1.60;75.70
12172;BME280;6149;52.418;13.668;2023-02-08T12:56:58;103755.19;;;1.60;75.47
12172;BME280;6149;52.418;13.668;2023-02-08T12:59:31;103751.38;;;1.51;75.99
12172;BME280;6149;52.418;13.668;2023-02-08T13:02:09;103754.75;;;1.47;76.14
12172;BME280;6149;52.418;13.668;2023-02-08T13:04:42;103753.53;;;1.37;76.63
12172;BME280;6149;52.418;13.668;2023-02-08T13:07:13;103755.19;;;1.35;75.39
12172;BME280;6149;52.418;13.668;2023-02-08T13:09:46;103751.03;;;1.40;75.64